Boley, Oklahoma
Current Conditions -  °F | °C
As of 10:15 PM on Friday 24 Oct 2014 (Local Time) from KCQB Reporting Station
Clear Clear  
Wind Chill: 70°   Ceiling: Unl
Heat Index: 70°   Visibility: 10mi
Dew Point: 66°   Wind: 5mph
Humidity: 88%   Direction: 190°S
Pressure: 30.06"   Gusts: NA
Location:  35.49°N, 96.48°W
Report Text: KCQB 250315Z AUTO 19004KT 10SM CLR 21/19 A3006 RMK AO2
Loading
Personal Weather Stations






























Interactive Weather Map New forecast layout! Learn more

10-Day Weather Forecast

Advertisements
Track Severe Weather on mobile